Time;durP1;ratioP1;P1;durP2;ratioP2;P2;SDS_P1;SDS_P2;PMS_P1;PMS_P2;Temp;Humidity;BMP_temperature;BMP_pressure;BME280_temperature;BME280_humidity;BME280_pressure;Samples;Min_cycle;Max_cycle;Signal;HPM_P1;HPM_P2
2024/04/18 00:00:07;;;;;;;18.70;11.30;;;;;;;3.92;80.17;99599.64;128054;1298;128750;-63
2024/04/18 00:03:53;;;;;;;19.10;10.70;;;;;;;3.82;80.01;99608.08;126695;1291;114804;-64
2024/04/18 00:08:18;;;;;;;17.80;10.60;;;;;;;3.74;80.00;99603.58;126019;1315;114891;-63
2024/04/18 00:11:55;;;;;;;17.00;10.80;;;;;;;3.63;79.85;99604.09;121681;1304;114988;-63
2024/04/18 00:15:55;;;;;;;;;;;;;;;;;;;;;
2024/04/18 00:19:45;;;;;;;18.10;11.20;;;;;;;3.38;79.73;99603.99;123738;1317;115017;-61
2024/04/18 00:24:06;;;;;;;18.00;10.50;;;;;;;3.29;79.72;99608.01;126389;1294;635987;-65
2024/04/18 00:32:11;;;;;;;18.70;10.80;;;;;;;3.02;80.00;99603.51;126846;1308;114942;-63
2024/04/18 00:36:13;;;;;;;;;;;;;;;;;;;;;
2024/04/18 00:40:08;;;;;;;18.40;11.00;;;;;;;2.83;80.03;99610.95;124888;1327;114946;-62
2024/04/18 00:48:29;;;;;;;19.10;10.20;;;;;;;2.71;80.76;99608.29;126436;1299;636381;-63
2024/04/18 00:52:21;;;;;;;;;;;;;;;;;;;;;
2024/04/18 00:56:24;;;;;;;18.30;10.20;;;;;;;2.66;80.98;99611.42;126691;1309;114959;-64
2024/04/18 01:00:28;;;;;;;19.30;10.50;;;;;;;2.67;81.20;99620.90;122476;1313;5414061;-63
2024/04/18 01:04:28;;;;;;;;;;;;;;;;;;;;;
2024/04/18 01:08:08;;;;;;;;;;;;;;;;;;;;;
2024/04/18 01:16:23;;;;;;;15.90;9.40;;;;;;;2.88;82.52;99630.55;126264;1299;635870;-63
2024/04/18 01:20:24;;;;;;;17.90;9.90;;;;;;;2.96;82.77;99625.39;128496;1296;130746;-61
2024/04/18 01:24:15;;;;;;;16.40;9.60;;;;;;;3.03;82.78;99625.86;127621;1294;114963;-62
2024/04/18 01:28:18;;;;;;;16.80;10.20;;;;;;;3.11;83.10;99625.29;123505;1307;5408323;-62
2024/04/18 01:32:10;;;;;;;16.60;8.90;;;;;;;3.18;83.02;99624.71;125823;1301;114914;-62
2024/04/18 01:40:00;;;;;;;17.90;12.00;;;;;;;3.32;83.19;99626.97;126418;1295;636100;-62
2024/04/18 01:44:06;;;;;;;15.80;9.50;;;;;;;3.31;83.04;99630.00;128369;1277;127639;-64
2024/04/18 01:48:08;;;;;;;13.70;9.10;;;;;;;3.32;82.96;99639.48;128327;1277;114903;-63
2024/04/18 01:51:58;;;;;;;16.20;10.40;;;;;;;3.32;83.04;99635.79;127742;1284;114937;-63
2024/04/18 01:55:59;;;;;;;;;;;;;;;;;;;;;
2024/04/18 02:00:00;;;;;;;13.40;8.60;;;;;;;3.33;83.11;99642.08;125467;1304;115054;-62
2024/04/18 02:08:29;;;;;;;14.40;9.50;;;;;;;3.45;83.52;99644.05;125865;1297;640359;-61
2024/04/18 02:12:00;;;;;;;12.30;8.40;;;;;;;3.49;83.63;99646.03;128300;1298;129773;-63
2024/04/18 02:15:46;;;;;;;14.00;7.80;;;;;;;3.54;83.73;99648.89;127809;1279;114931;-64
2024/04/18 02:19:17;;;;;;;15.10;7.90;;;;;;;3.59;83.84;99646.96;126868;1297;115409;-64
2024/04/18 02:23:01;;;;;;;12.80;9.60;;;;;;;3.63;83.85;99643.30;123722;1300;114869;-63
2024/04/18 02:27:01;;;;;;;16.50;8.50;;;;;;;3.65;83.83;99641.99;126997;1308;114905;-63
2024/04/18 02:31:03;;;;;;;11.10;7.10;;;;;;;3.65;83.60;99647.30;126349;1312;114896;-63
2024/04/18 02:34:52;;;;;;;;;;;;;;;;;;;;;
2024/04/18 02:43:14;;;;;;;16.00;10.40;;;;;;;3.57;83.29;99640.83;126250;1297;637270;-62
2024/04/18 02:47:15;;;;;;;14.40;8.30;;;;;;;3.52;83.37;99646.64;127723;1280;130144;-62
2024/04/18 02:51:07;;;;;;;;;;;;;;;;;;;;;
2024/04/18 02:54:57;;;;;;;;;;;;;;;;;;;;;
2024/04/18 02:59:01;;;;;;;13.20;7.80;;;;;;;3.39;83.25;99644.40;126813;1287;114917;-63
2024/04/18 03:02:35;;;;;;;;;;;;;;;;;;;;;
2024/04/18 03:06:42;;;;;;;9.70;6.40;;;;;;;3.33;83.45;99649.50;125598;1321;115061;-63
2024/04/18 03:10:32;;;;;;;13.90;7.20;;;;;;;3.32;83.63;99650.58;124834;1319;129785;-62
2024/04/18 03:18:52;;;;;;;12.30;8.10;;;;;;;3.39;84.04;99656.05;127060;1285;636112;-64
2024/04/18 03:22:27;;;;;;;13.30;8.00;;;;;;;3.40;84.15;99657.98;132992;1270;127707;-63
2024/04/18 03:26:18;;;;;;;11.70;8.30;;;;;;;3.43;84.12;99664.20;133184;1270;112906;-63
2024/04/18 03:30:04;;;;;;;11.20;7.80;;;;;;;3.47;84.20;99664.98;132667;1276;112818;-64
2024/04/18 03:34:05;;;;;;;11.90;7.60;;;;;;;3.52;84.29;99667.14;129422;1281;112659;-64
2024/04/18 03:37:49;;;;;;;;;;;;;;;;;;;;;
2024/04/18 03:42:14;;;;;;;12.50;7.70;;;;;;;3.65;84.41;99670.95;126151;1291;637805;-64
2024/04/18 03:46:19;;;;;;;9.70;7.10;;;;;;;3.68;84.35;99673.52;128987;1270;128817;-63
2024/04/18 03:50:20;;;;;;;14.40;6.60;;;;;;;3.71;84.41;99672.90;128761;1293;115323;-64
2024/04/18 03:54:25;;;;;;;;;;;;;;;;;;;;;
2024/04/18 03:58:13;;;;;;;;;;;;;;;;;;;;;
2024/04/18 04:02:08;;;;;;;13.00;7.10;;;;;;;3.77;84.56;99681.02;125386;1312;114871;-62
2024/04/18 04:06:00;;;;;;;10.10;6.30;;;;;;;3.77;84.64;99682.95;124582;1305;129909;-62
2024/04/18 04:10:00;;;;;;;;;;;;;;;;;;;;;
2024/04/18 04:17:56;;;;;;;;;;;;;;;;;;;;;
2024/04/18 04:22:00;;;;;;;10.80;6.00;;;;;;;3.97;84.88;99695.40;128563;1270;128848;-62
2024/04/18 04:26:00;;;;;;;;;;;;;;;;;;;;;
2024/04/18 04:33:57;;;;;;;8.90;5.80;;;;;;;4.12;84.95;99718.42;123130;1291;114948;-63
2024/04/18 04:37:57;;;;;;;8.80;6.30;;;;;;;4.17;84.95;99719.85;126342;1313;114917;-63
2024/04/18 04:41:57;;;;;;;8.00;5.60;;;;;;;4.23;84.92;99721.95;125494;1312;115240;-63
2024/04/18 04:45:51;;;;;;;;;;;;;;;;;;;;;
2024/04/18 04:49:51;;;;;;;9.80;6.30;;;;;;;4.37;84.88;99726.27;124396;1325;114836;-63
2024/04/18 04:53:36;;;;;;;8.60;6.00;;;;;;;4.45;85.00;99728.48;124724;1319;114965;-62
2024/04/18 04:57:28;;;;;;;;;;;;;;;;;;;;;
2024/04/18 05:01:10;;;;;;;11.40;7.00;;;;;;;4.63;84.80;99723.80;126879;1292;635847;-61
2024/04/18 05:04:39;;;;;;;12.70;6.40;;;;;;;4.70;84.95;99731.66;128622;1296;127750;-61
2024/04/18 05:08:00;;;;;;;;;;;;;;;4.79;84.86;99731.73;128519;1296;114792;-61
2024/04/18 05:12:04;;;;;;;7.90;5.40;;;;;;;4.86;84.80;99734.14;128471;1278;114932;-63
2024/04/18 05:19:09;;;;;;;11.30;6.90;;;;;;;5.09;84.87;99744.50;126113;1299;115006;-61
2024/04/18 05:23:25;;;;;;;10.00;7.20;;;;;;;5.18;84.57;99747.00;125923;1299;126874;-63
2024/04/18 05:26:32;;;;;;;9.90;7.10;;;;;;;5.28;84.37;99751.96;125064;1321;114970;-63
2024/04/18 05:33:24;;;;;;;10.10;6.60;;;;;;;5.48;84.33;99752.98;125473;1315;114876;-63
2024/04/18 05:37:03;;;;;;;11.00;6.50;;;;;;;5.63;84.20;99751.70;125358;1305;114966;-63
2024/04/18 05:40:15;;;;;;;8.20;6.00;;;;;;;5.82;83.95;99754.36;125047;1310;128098;-64
2024/04/18 05:43:24;;;;;;;10.10;6.20;;;;;;;5.99;83.81;99758.64;125739;1309;115248;-67
2024/04/18 05:46:49;;;;;;;9.10;6.80;;;;;;;6.26;83.98;99759.58;126014;1301;114819;-67
2024/04/18 05:49:50;;;;;;;6.80;4.10;;;;;;;6.54;83.79;99758.42;125783;1301;114911;-64
2024/04/18 05:53:12;;;;;;;;;;;;;;;;;;;;;
2024/04/18 05:56:17;;;;;;;9.50;6.20;;;;;;;7.02;83.33;99764.20;128169;1297;128701;-64
2024/04/18 05:59:37;;;;;;;8.50;5.70;;;;;;;7.23;83.02;99761.15;128920;1290;114927;-63
2024/04/18 06:02:42;;;;;;;10.00;6.60;;;;;;;7.47;82.52;99759.91;129055;1264;114741;-66
2024/04/18 06:05:56;;;;;;;11.00;7.10;;;;;;;7.68;82.15;99754.33;129608;1269;114829;-65
2024/04/18 06:09:09;;;;;;;10.90;7.50;;;;;;;7.93;81.62;99758.53;129287;1269;115155;-67
2024/04/18 06:12:12;;;;;;;14.10;8.20;;;;;;;8.13;80.99;99760.79;129441;1260;114882;-67
2024/04/18 06:15:18;;;;;;;10.60;7.70;;;;;;;8.28;80.80;99759.85;129424;1273;114823;-66
2024/04/18 06:18:20;;;;;;;11.10;6.80;;;;;;;8.43;79.82;99762.00;129675;1262;114843;-65
2024/04/18 06:21:22;;;;;;;15.40;8.30;;;;;;;8.49;79.92;99764.19;130214;1271;115214;-66
2024/04/18 06:24:54;;;;;;;15.50;9.10;;;;;;;8.59;79.70;99766.55;130189;1258;114732;-65
2024/04/18 06:28:24;;;;;;;11.60;8.70;;;;;;;8.64;79.06;99765.77;130039;1258;114699;-66
2024/04/18 06:32:08;;;;;;;12.50;8.20;;;;;;;8.64;78.88;99768.79;129366;1264;128840;-66
2024/04/18 06:36:04;;;;;;;12.40;7.40;;;;;;;8.72;78.45;99772.70;128674;1274;114856;-64
2024/04/18 06:40:13;;;;;;;11.20;7.50;;;;;;;8.84;78.35;99772.06;129046;1274;114951;-63
2024/04/18 06:44:14;;;;;;;11.30;6.90;;;;;;;9.05;78.31;99776.36;127656;1287;114920;-67
2024/04/18 06:48:14;;;;;;;;;;;;;;;;;;;;;
2024/04/18 06:55:59;;;;;;;9.40;7.60;;;;;;;9.84;76.69;99794.65;125922;1300;636314;-65
2024/04/18 06:59:27;;;;;;;8.20;7.30;;;;;;;9.88;75.85;99795.66;128687;1273;128093;-66
2024/04/18 07:03:23;;;;;;;10.10;7.30;;;;;;;9.91;75.47;99801.04;129079;1275;114709;-67
2024/04/18 07:07:08;;;;;;;11.60;7.50;;;;;;;10.06;75.25;99803.96;128430;1280;114878;-67
2024/04/18 07:11:02;;;;;;;;;;;;;;;;;;;;;
2024/04/18 07:14:52;;;;;;;;;;;;;;;;;;;;;
2024/04/18 07:18:30;;;;;;;4.30;3.80;;;;;;;10.77;74.05;99803.18;127232;1285;115218;-66
2024/04/18 07:21:32;;;;;;;;;;;;;;;11.45;72.38;99799.17;126683;1289;128815;-66
2024/04/18 07:24:54;;;;;;;4.70;3.40;;;;;;;11.94;72.39;99802.02;126597;1288;114857;-65
2024/04/18 07:28:32;;;;;;;4.40;2.90;;;;;;;12.87;70.75;99797.82;126664;1302;114829;-67
2024/04/18 07:32:16;;;;;;;;;;;;;;;;;;;;;
2024/04/18 07:36:09;;;;;;;;;;;;;;;;;;;;;
2024/04/18 07:39:49;;;;;;;;;;;;;;;;;;;;;
2024/04/18 07:43:43;;;;;;;6.00;4.80;;;;;;;13.95;66.08;99802.25;126350;1293;114832;-65
2024/04/18 07:47:29;;;;;;;;;;;;;;;;;;;;;
2024/04/18 07:51:28;;;;;;;6.80;4.30;;;;;;;12.82;64.98;99810.20;125412;1311;114781;-66
2024/04/18 07:55:30;;;;;;;6.50;3.90;;;;;;;12.48;65.25;99813.89;125912;1293;114866;-66
2024/04/18 07:58:57;;;;;;;3.50;2.70;;;;;;;12.26;64.60;99817.40;125677;1306;128521;-65
2024/04/18 08:02:59;;;;;;;25.10;10.20;;;;;;;12.08;63.19;99821.61;125252;1315;114836;-66
2024/04/18 08:06:59;;;;;;;;;;;;;;;;;;;;;
2024/04/18 08:10:51;;;;;;;4.40;2.80;;;;;;;11.69;61.63;99825.80;126705;1301;635791;-64
2024/04/18 08:14:54;;;;;;;5.80;2.30;;;;;;;11.45;62.51;99826.17;128244;1284;128875;-64
2024/04/18 08:18:30;;;;;;;;;;;;;;;;;;;;;
2024/04/18 08:22:24;;;;;;;;;;;;;;;;;;;;;
2024/04/18 08:26:18;;;;;;;4.10;3.30;;;;;;;10.76;63.71;99835.98;123123;1297;114904;-63
2024/04/18 08:30:07;;;;;;;4.40;2.40;;;;;;;10.62;64.49;99837.42;126956;1292;115048;-64
2024/04/18 08:33:40;;;;;;;4.80;3.30;;;;;;;10.57;64.22;99840.08;126172;1299;115161;-65
2024/04/18 08:37:24;;;;;;;3.40;3.00;;;;;;;11.02;65.67;99833.18;126436;1298;128698;-64
2024/04/18 08:41:11;;;;;;;3.80;2.20;;;;;;;12.13;66.27;99826.27;125584;1302;114953;-65
2024/04/18 08:44:54;;;;;;;;;;;;;;;;;;;;;
2024/04/18 08:48:35;;;;;;;3.70;2.10;;;;;;;14.05;63.71;99816.12;125052;1308;114734;-65
2024/04/18 08:56:50;;;;;;;3.90;1.80;;;;;;;13.92;58.93;99821.18;125595;1300;642194;-65
2024/04/18 09:00:15;;;;;;;2.80;2.20;;;;;;;13.51;57.87;99825.48;128842;1273;128919;-65
2024/04/18 09:03:34;;;;;;;;;;;;;;;;;;;;;
2024/04/18 09:07:31;;;;;;;;;;;;;;;;;;;;;
2024/04/18 09:10:58;;;;;;;4.70;3.10;;;;;;;13.10;56.66;99841.16;122700;1302;5451771;-66
2024/04/18 09:14:48;;;;;;;2.90;2.40;;;;;;;13.09;56.74;99838.13;127130;1288;114779;-64
2024/04/18 09:18:33;;;;;;;;;;;;;;;;;;;;;
2024/04/18 09:22:39;;;;;;;4.10;1.90;;;;;;;12.86;55.85;99842.76;126946;1289;127885;-65
2024/04/18 09:26:25;;;;;;;4.00;2.00;;;;;;;13.24;56.00;99852.56;126864;1290;114953;-67
2024/04/18 09:29:49;;;;;;;;;;;;;;;;;;;;;
2024/04/18 09:33:39;;;;;;;;;;;;;;;;;;;;;
2024/04/18 09:37:28;;;;;;;2.40;2.00;;;;;;;14.34;53.71;99835.91;126926;1307;115421;-63
2024/04/18 09:40:37;;;;;;;3.40;2.20;;;;;;;14.67;53.24;99847.02;127801;1274;128954;-64
2024/04/18 09:44:30;;;;;;;3.20;2.00;;;;;;;14.77;53.32;99846.71;127636;1273;114906;-63
2024/04/18 09:48:23;;;;;;;3.00;2.50;;;;;;;14.70;52.26;99845.58;128603;1278;114997;-62
2024/04/18 09:51:57;;;;;;;4.50;2.60;;;;;;;14.76;53.16;99846.73;128551;1290;114930;-63
2024/04/18 09:55:44;;;;;;;6.20;3.50;;;;;;;14.73;51.66;99843.02;128603;1291;114847;-62
2024/04/18 09:59:31;;;;;;;;;;;;;;;;;;;;;
2024/04/18 10:03:18;;;;;;;6.20;3.20;;;;;;;14.48;50.65;99841.04;128525;1276;114925;-62
2024/04/18 10:06:50;;;;;;;;;;;;;;;;;;;;;
2024/04/18 10:10:47;;;;;;;;;;;;;;;;;;;;;
2024/04/18 10:14:27;;;;;;;;;;;;;;;;;;;;;
2024/04/18 10:18:21;;;;;;;4.20;3.20;;;;;;;13.59;50.59;99847.89;125788;1308;129789;-62
2024/04/18 10:22:11;;;;;;;4.60;3.00;;;;;;;13.54;50.29;99853.99;125776;1300;114890;-61
2024/04/18 10:25:45;;;;;;;4.70;2.30;;;;;;;13.47;50.50;99861.47;125920;1298;114964;-61
2024/04/18 10:29:37;;;;;;;4.50;2.40;;;;;;;13.41;50.10;99866.14;125795;1310;114912;-62
2024/04/18 10:33:05;;;;;;;5.00;2.50;;;;;;;13.32;50.23;99859.38;125282;1314;114917;-62
2024/04/18 10:36:40;;;;;;;4.70;3.00;;;;;;;13.23;49.80;99859.26;125494;1300;128616;-62
2024/04/18 10:40:33;;;;;;;4.30;2.80;;;;;;;13.02;49.36;99859.20;125760;1316;114863;-64
2024/04/18 10:44:28;;;;;;;;;;;;;;;;;;;;;
2024/04/18 10:52:09;;;;;;;;;;;;;;;;;;;;;
2024/04/18 10:56:06;;;;;;;5.10;2.00;;;;;;;12.50;48.09;99864.56;128074;1270;131360;-62
2024/04/18 10:59:56;;;;;;;2.20;1.70;;;;;;;12.14;47.96;99869.37;127715;1283;114829;-63
2024/04/18 11:03:33;;;;;;;3.20;1.60;;;;;;;11.84;48.42;99866.39;126968;1297;114790;-63
2024/04/18 11:07:33;;;;;;;;;;;;;;;;;;;;;
2024/04/18 11:11:27;;;;;;;2.20;1.20;;;;;;;12.14;49.35;99863.31;126465;1305;114930;-64
2024/04/18 11:14:52;;;;;;;2.60;1.40;;;;;;;12.26;47.94;99865.73;127222;1293;114958;-63
2024/04/18 11:18:36;;;;;;;2.00;1.40;;;;;;;12.15;47.69;99868.09;127009;1300;127874;-64
2024/04/18 11:21:59;;;;;;;3.60;1.70;;;;;;;11.97;47.06;99876.70;126058;1298;115327;-64
2024/04/18 11:26:05;;;;;;;;;;;;;;;;;;;;;
2024/04/18 11:29:45;;;;;;;3.20;1.40;;;;;;;11.68;47.79;99867.49;125921;1301;114978;-64
2024/04/18 11:33:36;;;;;;;3.50;2.20;;;;;;;11.82;47.87;99879.95;126072;1316;114848;-64
2024/04/18 11:36:56;;;;;;;;;;;;;;;;;;;;;
2024/04/18 11:40:11;;;;;;;3.30;1.40;;;;;;;11.80;47.83;99876.27;127821;1277;114895;-65
2024/04/18 11:44:03;;;;;;;;;;;;;;;;;;;;;
2024/04/18 11:47:37;;;;;;;4.20;1.20;;;;;;;11.48;47.08;99885.02;127629;1296;116427;-65
2024/04/18 11:51:22;;;;;;;;;;;;;;;;;;;;;
2024/04/18 11:55:25;;;;;;;1.90;1.40;;;;;;;11.21;46.97;99883.75;127505;1281;128756;-64
2024/04/18 11:59:06;;;;;;;3.80;1.70;;;;;;;11.21;47.47;99886.23;127720;1280;114975;-64
2024/04/18 12:02:38;;;;;;;3.40;1.60;;;;;;;11.25;47.55;99885.67;128172;1299;114919;-64
2024/04/18 12:05:55;;;;;;;4.00;1.50;;;;;;;11.32;48.00;99888.48;128270;1288;115576;-65
2024/04/18 12:09:36;;;;;;;3.60;1.60;;;;;;;11.29;47.48;99882.40;128069;1277;114932;-64
2024/04/18 12:13:26;;;;;;;2.10;1.10;;;;;;;11.17;47.38;99880.06;127285;1305;128105;-63
2024/04/18 12:17:08;;;;;;;1.40;0.70;;;;;;;11.05;47.32;99876.27;126481;1295;115016;-63
2024/04/18 12:20:32;;;;;;;2.00;0.80;;;;;;;11.02;47.34;99868.73;125987;1317;114903;-64
2024/04/18 12:24:13;;;;;;;;;;;;;;;;;;;;;
2024/04/18 12:27:51;;;;;;;;;;;;;;;;;;;;;
2024/04/18 12:31:21;;;;;;;;;;;;;;;;;;;;;
2024/04/18 12:35:13;;;;;;;;;;;;;;;;;;;;;
2024/04/18 12:38:46;;;;;;;4.20;1.30;;;;;;;11.38;47.05;99868.98;127259;1288;114852;-65
2024/04/18 12:42:38;;;;;;;2.20;0.60;;;;;;;11.52;47.02;99877.10;126959;1291;114902;-64
2024/04/18 12:46:06;;;;;;;1.30;0.80;;;;;;;11.45;45.43;99884.28;126969;1309;114940;-64
2024/04/18 12:49:49;;;;;;;2.60;1.00;;;;;;;11.36;45.79;99886.42;126983;1304;131766;-64
2024/04/18 12:53:24;;;;;;;2.40;0.80;;;;;;;11.24;45.19;99881.61;127516;1277;114841;-63
2024/04/18 12:57:29;;;;;;;2.40;1.30;;;;;;;11.17;45.61;99879.17;128038;1292;114950;-63
2024/04/18 13:01:02;;;;;;;2.30;1.40;;;;;;;11.13;46.03;99885.48;128285;1297;114878;-65
2024/04/18 13:04:38;;;;;;;1.60;1.10;;;;;;;11.07;46.42;99889.20;128220;1287;115013;-62
2024/04/18 13:07:51;;;;;;;2.80;1.60;;;;;;;11.07;45.71;99890.47;128231;1297;129133;-64
2024/04/18 13:11:37;;;;;;;1.30;0.80;;;;;;;11.05;45.20;99891.42;128048;1297;114946;-64
2024/04/18 13:15:10;;;;;;;;;;;;;;;;;;;;;
2024/04/18 13:18:17;;;;;;;1.90;1.00;;;;;;;11.28;45.95;99893.85;127809;1297;114971;-64
2024/04/18 13:21:37;;;;;;;2.10;1.00;;;;;;;11.43;45.62;99894.79;128324;1290;115039;-64
2024/04/18 13:25:22;;;;;;;3.60;0.90;;;;;;;11.40;45.45;99912.30;128402;1297;129006;-66
2024/04/18 13:28:49;;;;;;;1.10;0.40;;;;;;;11.16;44.96;99915.47;127792;1279;115039;-65
2024/04/18 13:32:25;;;;;;;1.40;0.30;;;;;;;11.13;44.72;99905.14;127965;1290;114881;-65
2024/04/18 13:36:10;;;;;;;;;;;;;;;;;;;;;
2024/04/18 13:40:15;;;;;;;2.00;1.10;;;;;;;11.11;46.33;99898.24;128284;1292;114963;-66
2024/04/18 13:43:56;;;;;;;0.90;0.60;;;;;;;11.24;47.13;99896.23;127806;1281;128788;-65
2024/04/18 13:47:31;;;;;;;2.70;0.80;;;;;;;11.41;47.01;99894.19;128019;1282;115106;-66
2024/04/18 13:51:13;;;;;;;;;;;;;;;;;;;;;
2024/04/18 13:54:39;;;;;;;1.20;0.70;;;;;;;11.54;46.65;99897.50;127364;1283;114873;-64
2024/04/18 13:58:01;;;;;;;1.10;0.70;;;;;;;11.55;46.17;99898.89;127616;1304;114946;-66
2024/04/18 14:01:27;;;;;;;2.80;1.10;;;;;;;11.53;46.29;99901.54;127589;1285;128621;-65
2024/04/18 14:05:03;;;;;;;1.40;1.00;;;;;;;11.53;45.58;99900.10;127603;1293;114901;-66
2024/04/18 14:08:22;;;;;;;;;;;;;;;;;;;;;
2024/04/18 14:11:52;;;;;;;1.70;0.90;;;;;;;11.52;45.94;99919.48;127592;1284;115019;-65
2024/04/18 14:15:06;;;;;;;3.00;1.00;;;;;;;11.46;46.38;99928.39;127607;1285;114844;-64
2024/04/18 14:22:28;;;;;;;;;;;;;;;;;;;;;
2024/04/18 14:26:30;;;;;;;1.70;0.80;;;;;;;10.60;48.84;99966.86;126399;1311;115007;-64
2024/04/18 14:30:14;;;;;;;1.60;1.00;;;;;;;10.40;49.39;99976.33;125887;1313;114981;-64
2024/04/18 14:34:08;;;;;;;3.80;0.80;;;;;;;10.33;49.59;99982.73;126238;1315;115066;-64
2024/04/18 14:37:43;;;;;;;1.70;0.60;;;;;;;10.42;50.06;99980.88;125542;1298;128483;-66
2024/04/18 14:41:26;;;;;;;2.10;1.00;;;;;;;10.35;49.79;99982.85;125708;1304;117694;-64
2024/04/18 14:44:53;;;;;;;1.30;0.70;;;;;;;10.25;49.91;99987.12;125437;1312;114879;-65
2024/04/18 14:48:39;;;;;;;;;;;;;;;;;;;;;
2024/04/18 14:52:29;;;;;;;;;;;;;;;;;;;;;
2024/04/18 15:00:42;;;;;;;0.70;0.30;;;;;;;9.65;49.11;99978.61;126172;1305;636463;-64
2024/04/18 15:04:26;;;;;;;1.60;1.00;;;;;;;9.38;49.47;99973.52;128902;1270;127180;-66
2024/04/18 15:08:01;;;;;;;1.60;0.90;;;;;;;9.25;49.93;99978.09;128486;1277;114975;-64
2024/04/18 15:11:38;;;;;;;1.50;0.80;;;;;;;9.05;49.52;99978.90;128329;1292;114878;-65
2024/04/18 15:14:49;;;;;;;1.20;0.50;;;;;;;8.88;49.86;99982.73;124911;1277;5264552;-65
2024/04/18 15:18:21;;;;;;;1.50;0.80;;;;;;;8.75;50.09;99981.23;128851;1274;114766;-65
2024/04/18 15:22:05;;;;;;;;;;;;;;;;;;;;;
2024/04/18 15:26:10;;;;;;;1.70;0.60;;;;;;;8.59;50.48;99985.53;127871;1300;114844;-64
2024/04/18 15:29:40;;;;;;;1.80;0.90;;;;;;;8.52;50.14;99987.62;126651;1292;114989;-65
2024/04/18 15:33:25;;;;;;;2.60;0.50;;;;;;;8.47;50.69;99991.17;126044;1301;116603;-64
2024/04/18 15:37:26;;;;;;;2.00;0.60;;;;;;;8.48;50.95;99990.10;125492;1308;115240;-65
2024/04/18 15:41:01;;;;;;;;;;;;;;;;;;;;;
2024/04/18 15:44:38;;;;;;;;;;;;;;;;;;;;;
2024/04/18 15:48:11;;;;;;;3.10;1.20;;;;;;;8.82;51.38;99993.55;125535;1305;114990;-63
2024/04/18 15:51:54;;;;;;;1.80;0.70;;;;;;;8.89;51.36;99997.30;125447;1308;114889;-65
2024/04/18 15:55:44;;;;;;;;;;;;;;;;;;;;;
2024/04/18 15:58:50;;;;;;;1.40;1.10;;;;;;;8.76;51.92;100000.73;125029;1324;129761;-63
2024/04/18 16:02:15;;;;;;;1.70;0.90;;;;;;;8.67;52.03;100005.96;125256;1320;114914;-64
2024/04/18 16:05:46;;;;;;;;;;;;;;;;;;;;;
2024/04/18 16:09:38;;;;;;;3.50;1.50;;;;;;;8.34;52.46;100017.75;125921;1314;116576;-64
2024/04/18 16:13:31;;;;;;;3.70;1.50;;;;;;;8.19;52.49;100016.98;126275;1290;114916;-64
2024/04/18 16:17:33;;;;;;;2.40;1.50;;;;;;;8.10;52.67;100022.20;126543;1294;129788;-64
2024/04/18 16:21:24;;;;;;;4.30;1.60;;;;;;;7.96;53.09;100030.08;126283;1295;114820;-63
2024/04/18 16:25:26;;;;;;;4.30;1.80;;;;;;;7.76;53.71;100038.21;126211;1296;115389;-64
2024/04/18 16:29:15;;;;;;;;;;;;;;;;;;;;;
2024/04/18 16:33:05;;;;;;;;;;;;;;;;;;;;;
2024/04/18 16:36:34;;;;;;;2.80;1.40;;;;;;;7.15;55.56;100047.28;125392;1318;129936;-63
2024/04/18 16:39:59;;;;;;;2.80;1.60;;;;;;;7.01;56.00;100055.79;125717;1318;114968;-63
2024/04/18 16:43:42;;;;;;;3.50;1.70;;;;;;;6.94;56.29;100058.37;125965;1295;115006;-63
2024/04/18 16:47:31;;;;;;;3.00;2.20;;;;;;;6.91;56.76;100060.99;126712;1308;114920;-64
2024/04/18 16:51:15;;;;;;;;;;;;;;;;;;;;;
2024/04/18 16:55:10;;;;;;;3.00;1.20;;;;;;;6.84;57.39;100056.08;125905;1301;129733;-64
2024/04/18 16:58:54;;;;;;;;;;;;;;;;;;;;;
2024/04/18 17:02:36;;;;;;;;;;;;;;;;;;;;;
2024/04/18 17:06:11;;;;;;;;;;;;;;;;;;;;;
2024/04/18 17:10:07;;;;;;;3.40;1.50;;;;;;;6.40;58.43;100071.73;127889;1280;114982;-64
2024/04/18 17:13:57;;;;;;;;;;;;;;;;;;;;;
2024/04/18 17:17:42;;;;;;;5.30;3.40;;;;;;;6.18;59.38;100079.95;126224;1299;115004;-63
2024/04/18 17:21:33;;;;;;;4.10;1.70;;;;;;;6.10;59.65;100087.13;126264;1295;635897;-63
2024/04/18 17:25:28;;;;;;;;;;;;;;;;;;;;;
2024/04/18 17:29:25;;;;;;;4.60;1.90;;;;;;;5.95;60.18;100085.30;128260;1278;114955;-63
2024/04/18 17:33:14;;;;;;;5.80;1.80;;;;;;;5.91;60.49;100085.96;127502;1284;114757;-65
2024/04/18 17:37:15;;;;;;;6.50;3.30;;;;;;;5.91;60.92;100089.15;123043;1293;115027;-65
2024/04/18 17:40:58;;;;;;;;;;;;;;;;;;;;;
2024/04/18 17:44:30;;;;;;;8.30;3.30;;;;;;;5.90;61.41;100095.04;125825;1292;114893;-63
2024/04/18 17:48:10;;;;;;;5.60;3.30;;;;;;;5.90;61.50;100093.27;126356;1314;128968;-65
2024/04/18 17:52:04;;;;;;;5.80;2.20;;;;;;;5.89;61.61;100103.77;126252;1306;115067;-64
2024/04/18 17:56:08;;;;;;;5.70;2.70;;;;;;;5.88;61.70;100101.47;126062;1298;114955;-64
2024/04/18 18:00:14;;;;;;;;;;;;;;;;;;;;;
2024/04/18 18:03:47;;;;;;;6.70;2.30;;;;;;;5.85;62.34;100099.80;125580;1319;114999;-65
2024/04/18 18:07:38;;;;;;;;;;;;;;;;;;;;;
2024/04/18 18:11:20;;;;;;;5.00;2.00;;;;;;;5.77;62.63;100102.73;126171;1294;114910;-64
2024/04/18 18:15:05;;;;;;;5.70;3.30;;;;;;;5.70;62.82;100111.98;126932;1289;114959;-63
2024/04/18 18:18:44;;;;;;;;;;;;;;;;;;;;;
2024/04/18 18:22:29;;;;;;;5.70;2.60;;;;;;;5.52;63.20;100116.98;127756;1283;114993;-63
2024/04/18 18:26:32;;;;;;;5.60;2.60;;;;;;;5.42;63.58;100118.71;127542;1302;128746;-63
2024/04/18 18:30:25;;;;;;;6.90;2.30;;;;;;;5.32;63.99;100123.63;126950;1290;116444;-64
2024/04/18 18:34:42;;;;;;;7.20;3.70;;;;;;;5.22;64.33;100128.21;126370;1308;114910;-63
2024/04/18 18:38:09;;;;;;;6.70;3.30;;;;;;;5.10;64.74;100128.20;125733;1319;114869;-63
2024/04/18 18:41:26;;;;;;;7.10;3.70;;;;;;;5.00;64.92;100134.87;125619;1318;114962;-64
2024/04/18 18:45:16;;;;;;;;;;;;;;;;;;;;;
2024/04/18 18:49:03;;;;;;;8.40;4.40;;;;;;;4.77;65.27;100136.75;125253;1301;115021;-64
2024/04/18 18:52:31;;;;;;;;;;;;;;;;;;;;;
2024/04/18 18:56:31;;;;;;;;;;;;;;;;;;;;;
2024/04/18 19:00:31;;;;;;;;;;;;;;;;;;;;;
2024/04/18 19:03:54;;;;;;;5.40;2.80;;;;;;;4.28;66.50;100142.86;126323;1293;636113;-62
2024/04/18 19:06:56;;;;;;;5.20;3.00;;;;;;;4.17;66.85;100146.32;128999;1270;128986;-63
2024/04/18 19:10:40;;;;;;;5.70;3.50;;;;;;;4.10;67.02;100150.02;129168;1279;114867;-65
2024/04/18 19:13:55;;;;;;;7.90;3.30;;;;;;;4.04;67.55;100148.07;128655;1279;114853;-63
2024/04/18 19:17:01;;;;;;;6.30;3.60;;;;;;;4.02;67.95;100153.77;126222;1278;3362660;-65
2024/04/18 19:20:13;;;;;;;7.70;4.40;;;;;;;4.03;68.25;100156.40;128902;1283;114854;-63
2024/04/18 19:23:20;;;;;;;8.50;4.60;;;;;;;4.04;68.69;100156.73;128872;1284;115301;-64
2024/04/18 19:26:33;;;;;;;9.80;4.60;;;;;;;4.04;68.85;100152.48;128872;1275;129040;-63
2024/04/18 19:29:48;;;;;;;10.00;4.10;;;;;;;4.05;68.94;100149.11;128608;1286;114847;-64
2024/04/18 19:33:13;;;;;;;7.20;3.20;;;;;;;4.04;69.09;100147.01;128547;1275;114944;-64
2024/04/18 19:36:44;;;;;;;6.90;3.70;;;;;;;4.04;69.36;100141.71;128645;1294;114988;-64
2024/04/18 19:40:27;;;;;;;10.40;3.80;;;;;;;4.03;69.53;100139.96;128919;1274;114918;-64
2024/04/18 19:43:48;;;;;;;8.90;4.00;;;;;;;4.01;69.91;100134.52;128862;1276;127674;-63
2024/04/18 19:47:02;;;;;;;10.80;4.10;;;;;;;3.99;70.10;100132.09;128583;1275;114895;-63
2024/04/18 19:50:43;;;;;;;;;;;;;;;;;;;;;
2024/04/18 19:54:23;;;;;;;9.80;5.30;;;;;;;3.95;70.46;100128.14;129263;1287;114803;-63
2024/04/18 19:58:07;;;;;;;8.00;4.60;;;;;;;3.92;70.63;100123.80;129147;1287;114747;-62
2024/04/18 20:01:55;;;;;;;;;;;;;;;;;;;;;
2024/04/18 20:05:07;;;;;;;9.50;4.10;;;;;;;3.88;70.98;100123.03;128601;1287;114997;-64
2024/04/18 20:08:23;;;;;;;8.00;4.20;;;;;;;3.86;71.14;100129.61;129317;1277;114879;-63
2024/04/18 20:11:57;;;;;;;8.10;4.00;;;;;;;3.84;71.34;100135.83;129262;1286;114845;-62
2024/04/18 20:15:33;;;;;;;;;;;;;;;;;;;;;
2024/04/18 20:18:44;;;;;;;7.30;3.90;;;;;;;3.89;71.95;100142.42;129185;1286;128810;-65
2024/04/18 20:21:51;;;;;;;9.00;3.80;;;;;;;3.94;72.35;100140.73;129379;1282;114920;-63
2024/04/18 20:24:54;;;;;;;6.70;4.40;;;;;;;3.99;72.68;100134.39;129258;1267;115304;-63
2024/04/18 20:28:02;;;;;;;9.30;4.40;;;;;;;4.07;72.81;100128.02;129304;1264;115263;-65
2024/04/18 20:31:04;;;;;;;6.40;3.90;;;;;;;4.13;73.27;100115.48;129539;1274;114949;-63
2024/04/18 20:34:06;;;;;;;6.20;3.50;;;;;;;4.19;73.35;100109.33;129273;1286;114987;-64
2024/04/18 20:37:08;;;;;;;7.20;3.10;;;;;;;4.24;73.49;100116.45;129246;1286;114894;-64
2024/04/18 20:40:10;;;;;;;6.00;3.70;;;;;;;4.28;73.47;100119.19;129274;1286;114789;-64